sensor_id;sensor_type;location;lat;lon;timestamp;temperature;humidity
24250;DHT22;12379;49.820;8.648;2023-02-07T00:01:18;1.60;99.90
24250;DHT22;12379;49.820;8.648;2023-02-07T00:03:44;1.50;99.90
24250;DHT22;12379;49.820;8.648;2023-02-07T00:06:14;1.50;99.90
24250;DHT22;12379;49.820;8.648;2023-02-07T00:08:40;1.50;99.90
24250;DHT22;12379;49.820;8.648;2023-02-07T00:11:14;1.50;99.90
24250;DHT22;12379;49.820;8.648;2023-02-07T00:13:41;1.40;99.90
24250;DHT22;12379;49.820;8.648;2023-02-07T00:16:07;1.40;99.90
24250;DHT22;12379;49.820;8.648;2023-02-07T00:18:33;1.30;99.90
24250;DHT22;12379;49.820;8.648;2023-02-07T00:21:15;1.20;99.90
24250;DHT22;12379;49.820;8.648;2023-02-07T00:23:41;1.30;99.90
24250;DHT22;12379;49.820;8.648;2023-02-07T00:26:07;1.30;99.90
24250;DHT22;12379;49.820;8.648;2023-02-07T00:28:34;1.20;99.90
24250;DHT22;12379;49.820;8.648;2023-02-07T00:31:05;1.10;99.90
24250;DHT22;12379;49.820;8.648;2023-02-07T00:33:31;1.10;99.90
24250;DHT22;12379;49.820;8.648;2023-02-07T00:35:58;1.20;99.90
24250;DHT22;12379;49.820;8.648;2023-02-07T00:38:24;1.20;99.90
24250;DHT22;12379;49.820;8.648;2023-02-07T00:40:49;1.20;99.90
24250;DHT22;12379;49.820;8.648;2023-02-07T00:43:15;1.20;99.90
24250;DHT22;12379;49.820;8.648;2023-02-07T00:45:40;1.20;99.90
24250;DHT22;12379;49.820;8.648;2023-02-07T00:48:06;1.10;99.90
24250;DHT22;12379;49.820;8.648;2023-02-07T00:50:31;1.20;99.90
24250;DHT22;12379;49.820;8.648;2023-02-07T00:52:57;1.20;99.90
24250;DHT22;12379;49.820;8.648;2023-02-07T00:55:22;1.20;99.90
24250;DHT22;12379;49.820;8.648;2023-02-07T00:57:48;1.30;99.90
24250;DHT22;12379;49.820;8.648;2023-02-07T01:00:14;1.50;99.90
24250;DHT22;12379;49.820;8.648;2023-02-07T01:02:39;1.70;99.90
24250;DHT22;12379;49.820;8.648;2023-02-07T01:05:05;1.70;99.90
24250;DHT22;12379;49.820;8.648;2023-02-07T01:07:32;1.70;99.90
24250;DHT22;12379;49.820;8.648;2023-02-07T01:09:58;1.70;99.90
24250;DHT22;12379;49.820;8.648;2023-02-07T01:12:23;1.70;99.90
24250;DHT22;12379;49.820;8.648;2023-02-07T01:14:49;1.80;99.90
24250;DHT22;12379;49.820;8.648;2023-02-07T01:17:14;1.80;99.90
24250;DHT22;12379;49.820;8.648;2023-02-07T01:19:40;1.70;99.90
24250;DHT22;12379;49.820;8.648;2023-02-07T01:22:06;1.60;99.90
24250;DHT22;12379;49.820;8.648;2023-02-07T01:24:31;1.70;99.90
24250;DHT22;12379;49.820;8.648;2023-02-07T01:26:57;1.60;99.90
24250;DHT22;12379;49.820;8.648;2023-02-07T01:29:22;1.60;99.90
24250;DHT22;12379;49.820;8.648;2023-02-07T01:31:48;1.50;99.90
24250;DHT22;12379;49.820;8.648;2023-02-07T01:34:13;1.50;99.90
24250;DHT22;12379;49.820;8.648;2023-02-07T01:36:39;1.50;99.90
24250;DHT22;12379;49.820;8.648;2023-02-07T01:39:05;1.40;99.90
24250;DHT22;12379;49.820;8.648;2023-02-07T01:41:30;1.30;99.90
24250;DHT22;12379;49.820;8.648;2023-02-07T01:44:00;1.40;99.90
24250;DHT22;12379;49.820;8.648;2023-02-07T01:46:27;1.30;99.90
24250;DHT22;12379;49.820;8.648;2023-02-07T01:48:54;1.20;99.90
24250;DHT22;12379;49.820;8.648;2023-02-07T01:51:21;1.20;99.90
24250;DHT22;12379;49.820;8.648;2023-02-07T01:53:48;1.30;99.90
24250;DHT22;12379;49.820;8.648;2023-02-07T01:56:14;1.30;99.90
24250;DHT22;12379;49.820;8.648;2023-02-07T01:58:41;1.30;99.90
24250;DHT22;12379;49.820;8.648;2023-02-07T02:01:12;1.20;99.90
24250;DHT22;12379;49.820;8.648;2023-02-07T02:03:42;1.20;99.90
24250;DHT22;12379;49.820;8.648;2023-02-07T02:06:09;1.20;99.90
24250;DHT22;12379;49.820;8.648;2023-02-07T02:08:35;1.20;99.90
24250;DHT22;12379;49.820;8.648;2023-02-07T02:13:56;1.10;99.90
24250;DHT22;12379;49.820;8.648;2023-02-07T02:16:37;1.10;99.90
24250;DHT22;12379;49.820;8.648;2023-02-07T02:35:43;0.80;99.90
24250;DHT22;12379;49.820;8.648;2023-02-07T02:41:09;0.80;99.90
24250;DHT22;12379;49.820;8.648;2023-02-07T02:43:42;0.80;99.90
24250;DHT22;12379;49.820;8.648;2023-02-07T02:46:22;0.80;99.90
24250;DHT22;12379;49.820;8.648;2023-02-07T02:48:49;0.70;99.90
24250;DHT22;12379;49.820;8.648;2023-02-07T02:51:15;0.70;99.90
24250;DHT22;12379;49.820;8.648;2023-02-07T02:53:51;0.70;99.90
24250;DHT22;12379;49.820;8.648;2023-02-07T02:56:29;0.60;99.90
24250;DHT22;12379;49.820;8.648;2023-02-07T02:59:11;0.60;99.90
24250;DHT22;12379;49.820;8.648;2023-02-07T03:07:35;0.60;99.90
24250;DHT22;12379;49.820;8.648;2023-02-07T03:10:11;0.60;99.90
24250;DHT22;12379;49.820;8.648;2023-02-07T03:18:07;0.40;99.90
24250;DHT22;12379;49.820;8.648;2023-02-07T03:20:44;0.40;99.90
24250;DHT22;12379;49.820;8.648;2023-02-07T03:23:13;0.40;99.90
24250;DHT22;12379;49.820;8.648;2023-02-07T03:25:41;0.40;99.90
24250;DHT22;12379;49.820;8.648;2023-02-07T03:28:09;0.30;99.90
24250;DHT22;12379;49.820;8.648;2023-02-07T03:30:38;0.30;99.90
24250;DHT22;12379;49.820;8.648;2023-02-07T03:33:06;0.30;99.90
24250;DHT22;12379;49.820;8.648;2023-02-07T03:35:46;0.20;99.90
24250;DHT22;12379;49.820;8.648;2023-02-07T03:38:13;0.20;99.90
24250;DHT22;12379;49.820;8.648;2023-02-07T03:40:45;0.10;99.90
24250;DHT22;12379;49.820;8.648;2023-02-07T03:43:17;0.10;99.90
24250;DHT22;12379;49.820;8.648;2023-02-07T03:45:44;0.10;99.90
24250;DHT22;12379;49.820;8.648;2023-02-07T03:48:10;0.00;99.90
24250;DHT22;12379;49.820;8.648;2023-02-07T03:50:35;0.00;99.90
24250;DHT22;12379;49.820;8.648;2023-02-07T03:53:01;-0.10;99.90
24250;DHT22;12379;49.820;8.648;2023-02-07T03:55:26;0.00;99.90
24250;DHT22;12379;49.820;8.648;2023-02-07T03:57:53;-0.10;99.90
24250;DHT22;12379;49.820;8.648;2023-02-07T04:00:19;-0.10;99.90
24250;DHT22;12379;49.820;8.648;2023-02-07T04:02:44;0.00;99.90
24250;DHT22;12379;49.820;8.648;2023-02-07T04:05:11;-0.10;99.90
24250;DHT22;12379;49.820;8.648;2023-02-07T04:07:37;-0.20;99.90
24250;DHT22;12379;49.820;8.648;2023-02-07T04:10:04;-0.20;99.90
24250;DHT22;12379;49.820;8.648;2023-02-07T04:12:30;-0.20;99.90
24250;DHT22;12379;49.820;8.648;2023-02-07T04:15:00;-0.30;99.90
24250;DHT22;12379;49.820;8.648;2023-02-07T04:17:26;-0.40;99.90
24250;DHT22;12379;49.820;8.648;2023-02-07T04:19:52;-0.40;99.90
24250;DHT22;12379;49.820;8.648;2023-02-07T04:22:18;-0.40;99.90
24250;DHT22;12379;49.820;8.648;2023-02-07T04:24:43;-0.40;99.90
24250;DHT22;12379;49.820;8.648;2023-02-07T04:27:09;-0.50;99.90
24250;DHT22;12379;49.820;8.648;2023-02-07T04:29:34;-0.50;99.90
24250;DHT22;12379;49.820;8.648;2023-02-07T04:32:00;-0.40;99.90
24250;DHT22;12379;49.820;8.648;2023-02-07T04:34:27;-0.50;99.90
24250;DHT22;12379;49.820;8.648;2023-02-07T04:36:52;-0.40;99.90
24250;DHT22;12379;49.820;8.648;2023-02-07T04:39:18;-0.40;99.90
24250;DHT22;12379;49.820;8.648;2023-02-07T04:41:43;-0.40;99.90
24250;DHT22;12379;49.820;8.648;2023-02-07T04:44:09;-0.40;99.90
24250;DHT22;12379;49.820;8.648;2023-02-07T04:46:34;-0.40;99.90
24250;DHT22;12379;49.820;8.648;2023-02-07T04:49:00;-0.50;99.90
24250;DHT22;12379;49.820;8.648;2023-02-07T04:51:25;-0.60;99.90
24250;DHT22;12379;49.820;8.648;2023-02-07T04:53:51;-0.70;99.90
24250;DHT22;12379;49.820;8.648;2023-02-07T04:56:16;-0.70;99.90
24250;DHT22;12379;49.820;8.648;2023-02-07T04:58:42;-0.60;99.90
24250;DHT22;12379;49.820;8.648;2023-02-07T05:01:08;-0.70;99.90
24250;DHT22;12379;49.820;8.648;2023-02-07T05:03:33;-0.70;99.90
24250;DHT22;12379;49.820;8.648;2023-02-07T05:05:59;-0.70;99.90
24250;DHT22;12379;49.820;8.648;2023-02-07T05:08:24;-0.70;99.90
24250;DHT22;12379;49.820;8.648;2023-02-07T05:10:52;-0.80;99.90
24250;DHT22;12379;49.820;8.648;2023-02-07T05:13:18;-0.80;99.90
24250;DHT22;12379;49.820;8.648;2023-02-07T05:15:43;-0.80;99.90
24250;DHT22;12379;49.820;8.648;2023-02-07T05:18:09;-0.80;99.90
24250;DHT22;12379;49.820;8.648;2023-02-07T05:20:34;-0.90;99.90
24250;DHT22;12379;49.820;8.648;2023-02-07T05:23:00;-0.90;99.90
24250;DHT22;12379;49.820;8.648;2023-02-07T05:25:25;-0.90;99.90
24250;DHT22;12379;49.820;8.648;2023-02-07T05:27:51;-1.00;99.90
24250;DHT22;12379;49.820;8.648;2023-02-07T05:30:17;-1.00;99.90
24250;DHT22;12379;49.820;8.648;2023-02-07T05:32:42;-1.00;99.90
24250;DHT22;12379;49.820;8.648;2023-02-07T05:35:27;-1.00;99.90
24250;DHT22;12379;49.820;8.648;2023-02-07T05:37:52;-1.00;99.90
24250;DHT22;12379;49.820;8.648;2023-02-07T05:40:18;-1.00;99.90
24250;DHT22;12379;49.820;8.648;2023-02-07T05:42:44;-1.10;99.90
24250;DHT22;12379;49.820;8.648;2023-02-07T05:45:10;-1.10;99.90
24250;DHT22;12379;49.820;8.648;2023-02-07T05:47:35;-1.10;99.90
24250;DHT22;12379;49.820;8.648;2023-02-07T05:50:01;-1.10;99.90
24250;DHT22;12379;49.820;8.648;2023-02-07T05:52:26;-1.20;99.90
24250;DHT22;12379;49.820;8.648;2023-02-07T05:54:52;-1.10;99.90
24250;DHT22;12379;49.820;8.648;2023-02-07T05:57:18;-1.10;99.90
24250;DHT22;12379;49.820;8.648;2023-02-07T05:59:43;-1.10;99.90
24250;DHT22;12379;49.820;8.648;2023-02-07T06:02:09;-1.10;99.90
24250;DHT22;12379;49.820;8.648;2023-02-07T06:04:34;-1.10;99.90
24250;DHT22;12379;49.820;8.648;2023-02-07T06:07:00;-1.10;99.90
24250;DHT22;12379;49.820;8.648;2023-02-07T06:09:26;-1.10;99.90
24250;DHT22;12379;49.820;8.648;2023-02-07T06:11:51;-1.10;99.90
24250;DHT22;12379;49.820;8.648;2023-02-07T06:14:17;-1.20;99.90
24250;DHT22;12379;49.820;8.648;2023-02-07T06:16:42;-1.20;99.90
24250;DHT22;12379;49.820;8.648;2023-02-07T06:19:09;-1.30;99.90
24250;DHT22;12379;49.820;8.648;2023-02-07T06:21:37;-1.30;99.90
24250;DHT22;12379;49.820;8.648;2023-02-07T06:24:03;-1.20;99.90
24250;DHT22;12379;49.820;8.648;2023-02-07T06:26:29;-1.20;99.90
24250;DHT22;12379;49.820;8.648;2023-02-07T06:28:54;-1.30;99.90
24250;DHT22;12379;49.820;8.648;2023-02-07T06:31:20;-1.30;99.90
24250;DHT22;12379;49.820;8.648;2023-02-07T06:33:45;-1.40;99.90
24250;DHT22;12379;49.820;8.648;2023-02-07T06:36:11;-1.40;99.90
24250;DHT22;12379;49.820;8.648;2023-02-07T06:38:36;-1.30;99.90
24250;DHT22;12379;49.820;8.648;2023-02-07T06:41:02;-1.30;99.90
24250;DHT22;12379;49.820;8.648;2023-02-07T06:43:28;-1.40;99.90
24250;DHT22;12379;49.820;8.648;2023-02-07T06:45:53;-1.40;99.90
24250;DHT22;12379;49.820;8.648;2023-02-07T06:48:19;-1.40;99.90
24250;DHT22;12379;49.820;8.648;2023-02-07T06:50:44;-1.40;99.90
24250;DHT22;12379;49.820;8.648;2023-02-07T06:53:13;-1.50;99.90
24250;DHT22;12379;49.820;8.648;2023-02-07T06:55:39;-1.50;99.90
24250;DHT22;12379;49.820;8.648;2023-02-07T06:58:05;-1.50;99.90
24250;DHT22;12379;49.820;8.648;2023-02-07T07:00:31;-1.40;99.90
24250;DHT22;12379;49.820;8.648;2023-02-07T07:02:57;-1.50;99.90
24250;DHT22;12379;49.820;8.648;2023-02-07T07:05:25;-1.40;99.90
24250;DHT22;12379;49.820;8.648;2023-02-07T07:07:51;-1.40;99.90
24250;DHT22;12379;49.820;8.648;2023-02-07T07:10:16;-1.40;99.90
24250;DHT22;12379;49.820;8.648;2023-02-07T07:12:42;-1.40;99.90
24250;DHT22;12379;49.820;8.648;2023-02-07T07:15:08;-1.40;99.90
24250;DHT22;12379;49.820;8.648;2023-02-07T07:17:33;-1.50;99.90
24250;DHT22;12379;49.820;8.648;2023-02-07T07:19:59;-1.50;99.90
24250;DHT22;12379;49.820;8.648;2023-02-07T07:22:25;-1.50;99.90
24250;DHT22;12379;49.820;8.648;2023-02-07T07:24:51;-1.40;99.90
24250;DHT22;12379;49.820;8.648;2023-02-07T07:27:17;-1.30;99.90
24250;DHT22;12379;49.820;8.648;2023-02-07T07:29:42;-1.30;99.90
24250;DHT22;12379;49.820;8.648;2023-02-07T07:32:08;-1.30;99.90
24250;DHT22;12379;49.820;8.648;2023-02-07T07:34:36;-1.20;99.90
24250;DHT22;12379;49.820;8.648;2023-02-07T07:37:02;-1.10;99.90
24250;DHT22;12379;49.820;8.648;2023-02-07T07:39:27;-1.00;99.90
24250;DHT22;12379;49.820;8.648;2023-02-07T07:41:53;-0.90;99.90
24250;DHT22;12379;49.820;8.648;2023-02-07T07:44:19;-0.90;99.90
24250;DHT22;12379;49.820;8.648;2023-02-07T07:46:44;-0.80;99.90
24250;DHT22;12379;49.820;8.648;2023-02-07T07:49:10;-0.70;99.90
24250;DHT22;12379;49.820;8.648;2023-02-07T07:51:35;-0.70;99.90
24250;DHT22;12379;49.820;8.648;2023-02-07T07:54:01;-0.60;99.90
24250;DHT22;12379;49.820;8.648;2023-02-07T07:56:26;-0.50;99.90
24250;DHT22;12379;49.820;8.648;2023-02-07T07:58:56;-0.50;99.90
24250;DHT22;12379;49.820;8.648;2023-02-07T08:01:21;-0.40;99.90
24250;DHT22;12379;49.820;8.648;2023-02-07T08:03:47;-0.20;99.90
24250;DHT22;12379;49.820;8.648;2023-02-07T08:06:12;0.40;99.90
24250;DHT22;12379;49.820;8.648;2023-02-07T08:08:38;1.50;99.90
24250;DHT22;12379;49.820;8.648;2023-02-07T08:11:06;2.50;99.90
24250;DHT22;12379;49.820;8.648;2023-02-07T08:13:32;3.20;99.90
24250;DHT22;12379;49.820;8.648;2023-02-07T08:15:58;4.20;99.90
24250;DHT22;12379;49.820;8.648;2023-02-07T08:18:23;4.30;99.10
24250;DHT22;12379;49.820;8.648;2023-02-07T08:20:49;3.70;99.90
24250;DHT22;12379;49.820;8.648;2023-02-07T08:23:15;3.80;99.90
24250;DHT22;12379;49.820;8.648;2023-02-07T08:25:41;4.60;98.70
24250;DHT22;12379;49.820;8.648;2023-02-07T08:28:07;3.90;98.80
24250;DHT22;12379;49.820;8.648;2023-02-07T08:30:33;4.90;99.10
24250;DHT22;12379;49.820;8.648;2023-02-07T08:32:59;6.10;94.30
24250;DHT22;12379;49.820;8.648;2023-02-07T08:35:24;5.20;94.70
24250;DHT22;12379;49.820;8.648;2023-02-07T08:37:51;6.00;94.00
24250;DHT22;12379;49.820;8.648;2023-02-07T08:40:16;5.70;93.80
24250;DHT22;12379;49.820;8.648;2023-02-07T08:42:42;5.90;94.00
24250;DHT22;12379;49.820;8.648;2023-02-07T08:45:08;5.40;92.70
24250;DHT22;12379;49.820;8.648;2023-02-07T08:47:33;5.20;93.60
24250;DHT22;12379;49.820;8.648;2023-02-07T08:49:59;5.10;94.30
24250;DHT22;12379;49.820;8.648;2023-02-07T08:52:25;5.80;93.20
24250;DHT22;12379;49.820;8.648;2023-02-07T08:54:50;5.20;92.70
24250;DHT22;12379;49.820;8.648;2023-02-07T08:57:16;4.70;94.10
24250;DHT22;12379;49.820;8.648;2023-02-07T08:59:41;4.90;94.60
24250;DHT22;12379;49.820;8.648;2023-02-07T09:02:07;5.10;94.00
24250;DHT22;12379;49.820;8.648;2023-02-07T09:04:34;5.30;93.30
24250;DHT22;12379;49.820;8.648;2023-02-07T09:07:00;6.10;92.20
24250;DHT22;12379;49.820;8.648;2023-02-07T09:09:26;6.60;92.00
24250;DHT22;12379;49.820;8.648;2023-02-07T09:11:51;7.40;88.90
24250;DHT22;12379;49.820;8.648;2023-02-07T09:14:17;7.30;86.90
24250;DHT22;12379;49.820;8.648;2023-02-07T09:16:43;7.30;87.00
24250;DHT22;12379;49.820;8.648;2023-02-07T09:19:08;6.50;87.70
24250;DHT22;12379;49.820;8.648;2023-02-07T09:21:34;6.40;87.60
24250;DHT22;12379;49.820;8.648;2023-02-07T09:24:02;6.40;86.70
24250;DHT22;12379;49.820;8.648;2023-02-07T09:26:27;6.20;87.20
24250;DHT22;12379;49.820;8.648;2023-02-07T09:28:55;6.30;88.00
24250;DHT22;12379;49.820;8.648;2023-02-07T09:31:20;7.00;86.20
24250;DHT22;12379;49.820;8.648;2023-02-07T09:33:48;6.80;83.80
24250;DHT22;12379;49.820;8.648;2023-02-07T09:36:23;6.70;85.90
24250;DHT22;12379;49.820;8.648;2023-02-07T09:38:50;6.10;86.20
24250;DHT22;12379;49.820;8.648;2023-02-07T09:44:04;8.40;80.70
24250;DHT22;12379;49.820;8.648;2023-02-07T09:46:47;8.70;76.30
24250;DHT22;12379;49.820;8.648;2023-02-07T09:49:32;7.10;79.40
24250;DHT22;12379;49.820;8.648;2023-02-07T09:51:59;7.40;79.70
24250;DHT22;12379;49.820;8.648;2023-02-07T09:54:32;7.30;79.70
24250;DHT22;12379;49.820;8.648;2023-02-07T09:57:01;8.40;76.60
24250;DHT22;12379;49.820;8.648;2023-02-07T09:59:46;8.60;74.20
24250;DHT22;12379;49.820;8.648;2023-02-07T10:02:56;8.60;75.50
24250;DHT22;12379;49.820;8.648;2023-02-07T10:05:17;9.10;71.60
24250;DHT22;12379;49.820;8.648;2023-02-07T10:07:44;8.70;71.60
24250;DHT22;12379;49.820;8.648;2023-02-07T10:10:23;7.50;73.70
24250;DHT22;12379;49.820;8.648;2023-02-07T10:13:15;8.50;73.00
24250;DHT22;12379;49.820;8.648;2023-02-07T10:16:03;8.80;70.40
24250;DHT22;12379;49.820;8.648;2023-02-07T10:18:42;8.10;71.90
24250;DHT22;12379;49.820;8.648;2023-02-07T10:21:33;8.40;71.00
24250;DHT22;12379;49.820;8.648;2023-02-07T10:24:25;8.10;71.50
24250;DHT22;12379;49.820;8.648;2023-02-07T10:32:34;8.10;70.90
24250;DHT22;12379;49.820;8.648;2023-02-07T10:35:03;9.10;68.10
24250;DHT22;12379;49.820;8.648;2023-02-07T10:37:36;8.20;69.10
24250;DHT22;12379;49.820;8.648;2023-02-07T10:40:12;7.20;71.60
24250;DHT22;12379;49.820;8.648;2023-02-07T10:42:40;7.60;71.30
24250;DHT22;12379;49.820;8.648;2023-02-07T10:45:12;7.60;71.80
24250;DHT22;12379;49.820;8.648;2023-02-07T10:47:39;7.80;69.00
24250;DHT22;12379;49.820;8.648;2023-02-07T10:50:17;7.20;70.80
24250;DHT22;12379;49.820;8.648;2023-02-07T10:52:54;7.20;70.00
24250;DHT22;12379;49.820;8.648;2023-02-07T10:55:36;7.40;70.50
24250;DHT22;12379;49.820;8.648;2023-02-07T10:58:03;7.80;68.20
24250;DHT22;12379;49.820;8.648;2023-02-07T11:00:32;7.90;68.50
24250;DHT22;12379;49.820;8.648;2023-02-07T11:03:11;7.80;68.60
24250;DHT22;12379;49.820;8.648;2023-02-07T11:05:58;7.60;67.60
24250;DHT22;12379;49.820;8.648;2023-02-07T11:08:30;7.30;67.90
24250;DHT22;12379;49.820;8.648;2023-02-07T11:10:58;7.20;67.50
24250;DHT22;12379;49.820;8.648;2023-02-07T11:13:27;8.00;65.80
24250;DHT22;12379;49.820;8.648;2023-02-07T11:18:44;7.20;65.90
24250;DHT22;12379;49.820;8.648;2023-02-07T11:21:43;7.20;66.00
24250;DHT22;12379;49.820;8.648;2023-02-07T11:24:35;5.80;71.70
24250;DHT22;12379;49.820;8.648;2023-02-07T11:27:06;5.30;72.80
24250;DHT22;12379;49.820;8.648;2023-02-07T11:29:51;4.70;75.10
24250;DHT22;12379;49.820;8.648;2023-02-07T11:32:18;4.60;77.70
24250;DHT22;12379;49.820;8.648;2023-02-07T11:34:52;4.40;78.50
24250;DHT22;12379;49.820;8.648;2023-02-07T11:37:30;4.20;79.70
24250;DHT22;12379;49.820;8.648;2023-02-07T11:40:22;4.00;80.80
24250;DHT22;12379;49.820;8.648;2023-02-07T11:42:55;4.10;81.20
24250;DHT22;12379;49.820;8.648;2023-02-07T11:45:22;4.10;82.00
24250;DHT22;12379;49.820;8.648;2023-02-07T11:47:51;4.20;82.00
24250;DHT22;12379;49.820;8.648;2023-02-07T11:50:24;4.30;79.60
24250;DHT22;12379;49.820;8.648;2023-02-07T11:52:54;4.30;78.50
24250;DHT22;12379;49.820;8.648;2023-02-07T11:57:57;4.40;79.50
24250;DHT22;12379;49.820;8.648;2023-02-07T12:00:27;4.40;79.40
24250;DHT22;12379;49.820;8.648;2023-02-07T12:03:00;4.30;79.10
24250;DHT22;12379;49.820;8.648;2023-02-07T12:05:40;4.40;78.90
24250;DHT22;12379;49.820;8.648;2023-02-07T12:08:22;4.50;78.60
24250;DHT22;12379;49.820;8.648;2023-02-07T12:10:52;4.40;78.30
24250;DHT22;12379;49.820;8.648;2023-02-07T12:13:26;4.70;79.30
24250;DHT22;12379;49.820;8.648;2023-02-07T12:16:13;4.70;79.00
24250;DHT22;12379;49.820;8.648;2023-02-07T12:21:20;4.30;80.50
24250;DHT22;12379;49.820;8.648;2023-02-07T12:24:04;4.50;79.70
24250;DHT22;12379;49.820;8.648;2023-02-07T12:29:45;4.50;78.30
24250;DHT22;12379;49.820;8.648;2023-02-07T12:40:40;4.90;76.50
24250;DHT22;12379;49.820;8.648;2023-02-07T12:43:27;4.70;75.80
24250;DHT22;12379;49.820;8.648;2023-02-07T12:54:41;5.00;75.10
24250;DHT22;12379;49.820;8.648;2023-02-07T13:08:28;5.10;73.60
24250;DHT22;12379;49.820;8.648;2023-02-07T13:13:37;5.30;74.50
24250;DHT22;12379;49.820;8.648;2023-02-07T13:16:34;5.40;73.90
24250;DHT22;12379;49.820;8.648;2023-02-07T13:19:12;5.50;73.80
24250;DHT22;12379;49.820;8.648;2023-02-07T13:22:01;5.40;72.30
24250;DHT22;12379;49.820;8.648;2023-02-07T13:24:31;5.30;71.90
24250;DHT22;12379;49.820;8.648;2023-02-07T13:27:01;5.20;72.10
24250;DHT22;12379;49.820;8.648;2023-02-07T13:29:30;5.20;73.00
24250;DHT22;12379;49.820;8.648;2023-02-07T13:32:00;5.20;73.50
24250;DHT22;12379;49.820;8.648;2023-02-07T13:34:36;5.30;74.00
24250;DHT22;12379;49.820;8.648;2023-02-07T13:37:05;5.30;71.80
24250;DHT22;12379;49.820;8.648;2023-02-07T13:42:40;5.20;71.60
24250;DHT22;12379;49.820;8.648;2023-02-07T13:48:14;5.40;72.50
24250;DHT22;12379;49.820;8.648;2023-02-07T13:50:50;5.40;70.80
24250;DHT22;12379;49.820;8.648;2023-02-07T13:53:39;5.20;71.10
24250;DHT22;12379;49.820;8.648;2023-02-07T13:56:12;5.20;72.40
24250;DHT22;12379;49.820;8.648;2023-02-07T13:58:58;5.20;72.70
24250;DHT22;12379;49.820;8.648;2023-02-07T14:01:57;5.20;71.60
24250;DHT22;12379;49.820;8.648;2023-02-07T14:04:23;5.20;72.70
24250;DHT22;12379;49.820;8.648;2023-02-07T14:09:26;5.10;71.10
24250;DHT22;12379;49.820;8.648;2023-02-07T14:14:52;5.00;71.20
24250;DHT22;12379;49.820;8.648;2023-02-07T14:19:55;4.90;70.20
24250;DHT22;12379;49.820;8.648;2023-02-07T14:22:28;4.90;72.80
24250;DHT22;12379;49.820;8.648;2023-02-07T14:27:33;4.90;70.20
24250;DHT22;12379;49.820;8.648;2023-02-07T14:45:41;4.90;68.10
24250;DHT22;12379;49.820;8.648;2023-02-07T14:48:29;4.90;68.40
24250;DHT22;12379;49.820;8.648;2023-02-07T14:50:56;4.90;68.60
24250;DHT22;12379;49.820;8.648;2023-02-07T14:53:22;4.80;67.90
24250;DHT22;12379;49.820;8.648;2023-02-07T14:55:52;4.80;67.20
24250;DHT22;12379;49.820;8.648;2023-02-07T14:58:36;4.80;68.00
24250;DHT22;12379;49.820;8.648;2023-02-07T15:01:10;4.80;67.10
24250;DHT22;12379;49.820;8.648;2023-02-07T15:03:36;4.70;66.40
24250;DHT22;12379;49.820;8.648;2023-02-07T15:06:03;4.70;66.50
24250;DHT22;12379;49.820;8.648;2023-02-07T15:08:32;4.70;66.90
24250;DHT22;12379;49.820;8.648;2023-02-07T15:11:06;4.70;65.90
24250;DHT22;12379;49.820;8.648;2023-02-07T15:13:40;4.70;65.40
24250;DHT22;12379;49.820;8.648;2023-02-07T15:16:12;4.60;65.40
24250;DHT22;12379;49.820;8.648;2023-02-07T15:18:47;4.50;65.90
24250;DHT22;12379;49.820;8.648;2023-02-07T15:21:22;4.60;65.50
24250;DHT22;12379;49.820;8.648;2023-02-07T15:26:37;4.40;65.60
24250;DHT22;12379;49.820;8.648;2023-02-07T15:29:06;4.40;66.70
24250;DHT22;12379;49.820;8.648;2023-02-07T15:31:39;4.40;66.40
24250;DHT22;12379;49.820;8.648;2023-02-07T15:34:11;4.30;66.90
24250;DHT22;12379;49.820;8.648;2023-02-07T15:36:41;4.20;67.00
24250;DHT22;12379;49.820;8.648;2023-02-07T15:39:14;4.20;67.50
24250;DHT22;12379;49.820;8.648;2023-02-07T15:41:40;4.30;68.00
24250;DHT22;12379;49.820;8.648;2023-02-07T15:44:29;4.20;67.70
24250;DHT22;12379;49.820;8.648;2023-02-07T15:46:57;4.10;68.30
24250;DHT22;12379;49.820;8.648;2023-02-07T15:52:16;4.00;67.40
24250;DHT22;12379;49.820;8.648;2023-02-07T15:54:47;4.00;69.10
24250;DHT22;12379;49.820;8.648;2023-02-07T15:57:28;4.00;69.20
24250;DHT22;12379;49.820;8.648;2023-02-07T16:00:00;4.00;69.60
24250;DHT22;12379;49.820;8.648;2023-02-07T16:02:31;3.90;69.40
24250;DHT22;12379;49.820;8.648;2023-02-07T16:05:09;3.80;69.80
24250;DHT22;12379;49.820;8.648;2023-02-07T16:07:36;3.80;70.00
24250;DHT22;12379;49.820;8.648;2023-02-07T16:13:13;3.60;71.70
24250;DHT22;12379;49.820;8.648;2023-02-07T16:15:54;3.60;71.30
24250;DHT22;12379;49.820;8.648;2023-02-07T16:21:31;3.40;72.30
24250;DHT22;12379;49.820;8.648;2023-02-07T16:24:04;3.30;72.70
24250;DHT22;12379;49.820;8.648;2023-02-07T16:26:31;3.30;72.90
24250;DHT22;12379;49.820;8.648;2023-02-07T16:28:57;3.20;73.20
24250;DHT22;12379;49.820;8.648;2023-02-07T16:31:22;3.10;73.50
24250;DHT22;12379;49.820;8.648;2023-02-07T16:33:48;3.00;73.60
24250;DHT22;12379;49.820;8.648;2023-02-07T16:36:16;3.00;74.10
24250;DHT22;12379;49.820;8.648;2023-02-07T16:38:42;2.90;73.90
24250;DHT22;12379;49.820;8.648;2023-02-07T16:41:31;2.80;74.10
24250;DHT22;12379;49.820;8.648;2023-02-07T16:44:00;2.80;75.00
24250;DHT22;12379;49.820;8.648;2023-02-07T16:46:27;2.70;76.10
24250;DHT22;12379;49.820;8.648;2023-02-07T16:48:52;2.60;76.60
24250;DHT22;12379;49.820;8.648;2023-02-07T16:51:18;2.50;78.30
24250;DHT22;12379;49.820;8.648;2023-02-07T16:53:43;2.40;78.50
24250;DHT22;12379;49.820;8.648;2023-02-07T16:56:17;2.30;79.30
24250;DHT22;12379;49.820;8.648;2023-02-07T16:58:44;2.20;80.20
24250;DHT22;12379;49.820;8.648;2023-02-07T17:01:16;2.20;81.00
24250;DHT22;12379;49.820;8.648;2023-02-07T17:03:42;2.20;81.20
24250;DHT22;12379;49.820;8.648;2023-02-07T17:06:15;2.20;81.60
24250;DHT22;12379;49.820;8.648;2023-02-07T17:08:41;2.10;83.00
24250;DHT22;12379;49.820;8.648;2023-02-07T17:11:14;2.00;83.80
24250;DHT22;12379;49.820;8.648;2023-02-07T17:13:40;2.00;84.60
24250;DHT22;12379;49.820;8.648;2023-02-07T17:16:12;1.90;86.10
24250;DHT22;12379;49.820;8.648;2023-02-07T17:18:40;1.80;86.00
24250;DHT22;12379;49.820;8.648;2023-02-07T17:21:06;1.80;87.20
24250;DHT22;12379;49.820;8.648;2023-02-07T17:23:37;1.70;89.70
24250;DHT22;12379;49.820;8.648;2023-02-07T17:26:04;1.60;89.70
24250;DHT22;12379;49.820;8.648;2023-02-07T17:28:30;1.60;90.60
24250;DHT22;12379;49.820;8.648;2023-02-07T17:30:57;1.50;91.00
24250;DHT22;12379;49.820;8.648;2023-02-07T17:33:23;1.50;91.60
24250;DHT22;12379;49.820;8.648;2023-02-07T17:35:49;1.40;91.80
24250;DHT22;12379;49.820;8.648;2023-02-07T17:38:14;1.20;92.60
24250;DHT22;12379;49.820;8.648;2023-02-07T17:40:40;1.00;95.00
24250;DHT22;12379;49.820;8.648;2023-02-07T17:43:06;0.90;95.90
24250;DHT22;12379;49.820;8.648;2023-02-07T17:45:34;0.80;96.60
24250;DHT22;12379;49.820;8.648;2023-02-07T17:48:00;0.70;97.30
24250;DHT22;12379;49.820;8.648;2023-02-07T17:50:28;0.60;96.70
24250;DHT22;12379;49.820;8.648;2023-02-07T17:52:58;0.60;97.20
24250;DHT22;12379;49.820;8.648;2023-02-07T17:55:30;0.60;98.40
24250;DHT22;12379;49.820;8.648;2023-02-07T17:57:57;0.60;98.50
24250;DHT22;12379;49.820;8.648;2023-02-07T18:00:26;0.60;97.80
24250;DHT22;12379;49.820;8.648;2023-02-07T18:02:51;0.60;99.20
24250;DHT22;12379;49.820;8.648;2023-02-07T18:05:18;0.50;99.90